createdAt,value
2019-06-27T00:01:45.681Z,99.90
2019-06-27T00:06:46.777Z,99.90
2019-06-27T00:11:47.873Z,99.90
2019-06-27T00:16:51.220Z,99.90
2019-06-27T00:21:52.436Z,99.90
2019-06-27T00:26:57.466Z,99.90
2019-06-27T00:31:56.660Z,99.90
2019-06-27T00:36:57.780Z,99.90
2019-06-27T00:41:58.904Z,99.90
2019-06-27T00:47:00.001Z,99.90
2019-06-27T00:52:01.296Z,99.90
2019-06-27T00:57:13.645Z,99.90
2019-06-27T01:02:06.483Z,99.90
2019-06-27T01:07:07.576Z,99.90
2019-06-27T01:12:08.789Z,99.90
2019-06-27T01:17:09.881Z,99.90
2019-06-27T01:22:11.104Z,99.90
2019-06-27T01:27:12.186Z,99.90
2019-06-27T01:32:13.314Z,99.90
2019-06-27T01:37:14.615Z,99.90
2019-06-27T01:42:15.829Z,99.90
2019-06-27T01:47:16.951Z,99.90
2019-06-27T01:52:18.132Z,99.90
2019-06-27T01:57:19.229Z,99.90
2019-06-27T02:02:20.332Z,99.90
2019-06-27T02:07:21.433Z,99.90
2019-06-27T02:12:22.533Z,99.90
2019-06-27T02:17:23.624Z,99.90
2019-06-27T02:22:24.728Z,99.90
2019-06-27T02:27:26.655Z,99.90
2019-06-27T02:32:27.781Z,99.90
2019-06-27T02:37:28.868Z,99.90
2019-06-27T02:42:29.990Z,99.90
2019-06-27T02:47:32.699Z,99.90
2019-06-27T02:52:33.804Z,99.90
2019-06-27T02:57:34.903Z,99.90
2019-06-27T03:02:36.296Z,99.90
2019-06-27T03:07:37.409Z,99.90
2019-06-27T03:12:38.608Z,99.90
2019-06-27T03:17:39.802Z,99.90
2019-06-27T03:22:40.993Z,99.90
2019-06-27T03:27:42.085Z,99.90
2019-06-27T03:32:43.214Z,99.90
2019-06-27T03:37:44.624Z,99.90
2019-06-27T03:42:48.885Z,99.90
2019-06-27T03:47:51.461Z,99.90
2019-06-27T03:52:52.558Z,99.90
2019-06-27T03:57:53.653Z,99.90
2019-06-27T04:02:54.857Z,99.90
2019-06-27T04:07:59.334Z,99.90
2019-06-27T04:13:00.437Z,99.90
2019-06-27T04:18:01.626Z,99.90
2019-06-27T04:23:03.033Z,99.90
2019-06-27T04:28:04.348Z,99.90
2019-06-27T04:33:05.551Z,99.90
2019-06-27T04:38:06.673Z,99.90
2019-06-27T04:43:09.285Z,99.90
2019-06-27T04:48:10.465Z,99.90
2019-06-27T04:53:11.569Z,99.90
2019-06-27T04:58:12.709Z,99.90
2019-06-27T05:03:13.848Z,99.90
2019-06-27T05:08:15.088Z,99.90
2019-06-27T05:13:16.424Z,99.90
2019-06-27T05:18:17.634Z,99.90
2019-06-27T05:23:18.826Z,99.90
2019-06-27T05:28:19.926Z,99.90
2019-06-27T05:33:21.145Z,99.90
2019-06-27T05:38:23.723Z,99.90
2019-06-27T05:43:24.844Z,99.90
2019-06-27T05:48:25.939Z,99.90
2019-06-27T05:53:27.041Z,99.90
2019-06-27T05:58:28.129Z,99.90
2019-06-27T06:03:29.266Z,99.90
2019-06-27T06:08:30.360Z,99.90
2019-06-27T06:13:31.452Z,99.90
2019-06-27T06:18:32.555Z,99.90
2019-06-27T06:23:33.659Z,99.90
2019-06-27T06:28:35.551Z,99.90
2019-06-27T06:33:36.676Z,99.90
2019-06-27T06:38:37.788Z,99.90
2019-06-27T06:43:38.930Z,99.90
2019-06-27T06:48:40.209Z,99.90
2019-06-27T06:53:41.340Z,99.90
2019-06-27T06:58:42.553Z,99.90
2019-06-27T07:03:43.650Z,99.90
2019-06-27T07:08:44.765Z,99.90
2019-06-27T07:13:48.666Z,99.90
2019-06-27T07:18:49.779Z,99.90
2019-06-27T07:23:50.924Z,99.90
2019-06-27T07:28:52.012Z,99.90
2019-06-27T07:33:53.144Z,99.90
2019-06-27T07:38:54.244Z,99.90
2019-06-27T07:43:55.355Z,99.90
2019-06-27T07:48:56.449Z,99.90
2019-06-27T07:53:58.849Z,99.90
2019-06-27T07:58:59.956Z,99.90
2019-06-27T08:04:01.118Z,99.90
2019-06-27T08:09:02.938Z,99.90
2019-06-27T08:14:04.033Z,99.90
2019-06-27T08:19:05.128Z,99.90
2019-06-27T08:24:06.242Z,99.90
2019-06-27T08:29:07.341Z,99.90
2019-06-27T08:34:08.564Z,99.90
2019-06-27T08:39:09.684Z,99.90
2019-06-27T08:44:10.801Z,99.90
2019-06-27T08:49:11.894Z,99.90
2019-06-27T08:54:12.990Z,99.90
2019-06-27T08:59:16.900Z,99.90
2019-06-27T09:04:18.026Z,99.90
2019-06-27T09:09:19.219Z,99.90
2019-06-27T09:14:20.395Z,99.90
2019-06-27T09:19:21.484Z,99.90
2019-06-27T09:24:22.657Z,99.90
2019-06-27T09:29:23.913Z,99.90
2019-06-27T09:34:25.087Z,99.90
2019-06-27T09:39:27.177Z,99.90
2019-06-27T09:44:28.672Z,99.90
2019-06-27T09:49:29.780Z,99.90
2019-06-27T09:54:30.873Z,99.90
2019-06-27T09:59:31.987Z,99.90
2019-06-27T10:04:33.173Z,99.90
2019-06-27T10:09:34.297Z,97.50
2019-06-27T10:14:35.511Z,96.60
2019-06-27T10:19:36.794Z,93.10
2019-06-27T10:24:37.970Z,90.60
2019-06-27T10:29:39.561Z,90.00
2019-06-27T10:34:40.677Z,91.30
2019-06-27T10:39:41.795Z,86.40
2019-06-27T10:44:43.010Z,85.10
2019-06-27T10:49:44.211Z,81.40
2019-06-27T10:54:45.322Z,80.20
2019-06-27T10:59:46.597Z,78.50
2019-06-27T11:04:47.796Z,77.80
2019-06-27T11:09:50.301Z,73.90
2019-06-27T11:14:58.982Z,72.00
2019-06-27T11:19:55.596Z,67.40
2019-06-27T11:24:56.718Z,70.60
2019-06-27T11:29:59.177Z,65.80
2019-06-27T11:35:00.531Z,66.60
2019-06-27T11:40:02.261Z,60.20
2019-06-27T11:45:04.768Z,55.80
2019-06-27T11:50:07.245Z,57.20
2019-06-27T11:55:08.823Z,53.00
2019-06-27T12:00:10.218Z,53.20
2019-06-27T12:05:11.422Z,50.50
2019-06-27T12:10:15.142Z,50.90
2019-06-27T12:15:18.293Z,49.40
2019-06-27T12:20:19.619Z,50.00
2019-06-27T12:25:20.728Z,50.90
2019-06-27T12:30:21.858Z,49.40
2019-06-27T12:35:23.064Z,47.90
2019-06-27T12:40:24.459Z,45.00
2019-06-27T12:45:26.843Z,45.40
2019-06-27T12:50:27.975Z,47.40
2019-06-27T12:55:29.520Z,43.80
2019-06-27T13:00:30.719Z,44.40
2019-06-27T13:05:31.855Z,41.60
2019-06-27T13:10:35.808Z,40.50
2019-06-27T13:15:37.408Z,42.30
2019-06-27T13:20:38.563Z,42.60
2019-06-27T13:25:39.659Z,38.10
2019-06-27T13:30:40.761Z,38.00
2019-06-27T13:35:41.867Z,38.50
2019-06-27T13:40:43.079Z,38.90
2019-06-27T13:45:46.625Z,40.00
2019-06-27T13:50:47.769Z,38.00
2019-06-27T13:55:48.872Z,35.90
2019-06-27T14:00:50.081Z,36.40
2019-06-27T14:05:51.188Z,36.00
2019-06-27T14:10:52.297Z,36.40
2019-06-27T14:15:53.403Z,35.90
2019-06-27T14:20:57.595Z,37.00
2019-06-27T14:25:58.701Z,35.80
2019-06-27T14:31:02.617Z,36.70
2019-06-27T14:36:03.829Z,36.00
2019-06-27T14:41:04.933Z,36.70
2019-06-27T14:46:06.153Z,35.70
2019-06-27T14:51:07.256Z,36.20
2019-06-27T14:56:08.363Z,36.90
2019-06-27T15:01:10.080Z,36.10
2019-06-27T15:06:12.962Z,36.60
2019-06-27T15:11:14.060Z,35.00
2019-06-27T15:16:15.165Z,35.30
2019-06-27T15:21:16.364Z,38.20
2019-06-27T15:26:17.480Z,36.20
2019-06-27T15:31:22.187Z,34.90
2019-06-27T15:36:23.218Z,36.00
2019-06-27T15:41:24.318Z,36.50
2019-06-27T15:46:25.539Z,35.50
2019-06-27T15:51:26.651Z,36.10
2019-06-27T15:56:27.756Z,35.70
2019-06-27T16:01:28.848Z,36.30
2019-06-27T16:06:30.086Z,37.00
2019-06-27T16:11:31.247Z,36.50
2019-06-27T16:16:32.943Z,39.60
2019-06-27T16:21:34.180Z,38.50
2019-06-27T16:26:35.375Z,36.30
2019-06-27T16:31:36.491Z,38.30
2019-06-27T16:36:37.610Z,37.90
2019-06-27T16:41:38.740Z,38.90
2019-06-27T16:46:39.836Z,41.80
2019-06-27T16:51:40.933Z,42.70
2019-06-27T16:56:42.055Z,41.50
2019-06-27T17:01:43.138Z,42.60
2019-06-27T17:06:44.239Z,43.70
2019-06-27T17:11:45.435Z,43.40
2019-06-27T17:16:46.731Z,44.40
2019-06-27T17:21:47.833Z,45.30
2019-06-27T17:26:49.625Z,47.70
2019-06-27T17:31:50.727Z,47.80
2019-06-27T17:36:57.426Z,50.60
2019-06-27T17:41:55.022Z,53.10
2019-06-27T17:46:56.340Z,55.00
2019-06-27T17:51:57.541Z,56.80
2019-06-27T17:56:58.659Z,57.40
2019-06-27T18:01:59.876Z,59.30
2019-06-27T18:07:13.385Z,61.70
2019-06-27T18:12:04.088Z,61.50
2019-06-27T18:17:05.279Z,63.40
2019-06-27T18:22:07.969Z,62.30
2019-06-27T18:27:09.081Z,63.80
2019-06-27T18:32:10.191Z,65.10
2019-06-27T18:37:11.391Z,65.40
2019-06-27T18:42:12.521Z,66.70
2019-06-27T18:47:13.711Z,66.80
2019-06-27T18:52:14.954Z,69.30
2019-06-27T18:57:16.050Z,69.80
2019-06-27T19:02:17.292Z,71.50
2019-06-27T19:07:18.403Z,71.20
2019-06-27T19:12:19.607Z,72.60
2019-06-27T19:17:20.793Z,75.40
2019-06-27T19:22:40.266Z,76.20
2019-06-27T19:27:41.385Z,78.90
2019-06-27T19:32:42.514Z,80.50
2019-06-27T19:37:43.641Z,85.20
2019-06-27T19:42:44.764Z,86.70
2019-06-27T19:47:45.888Z,91.40
2019-06-27T19:52:47.108Z,95.60
2019-06-27T19:57:48.220Z,99.90
2019-06-27T20:02:49.529Z,99.90
2019-06-27T20:07:50.646Z,99.90
2019-06-27T20:12:53.337Z,99.90
2019-06-27T20:17:54.451Z,93.40
2019-06-27T20:22:55.570Z,81.80
2019-06-27T20:27:56.693Z,80.00
2019-06-27T20:32:57.822Z,71.10
2019-06-27T20:37:59.010Z,69.50
2019-06-27T20:43:00.371Z,69.40
2019-06-27T20:48:01.542Z,72.30
2019-06-27T20:53:02.721Z,72.00
2019-06-27T20:58:03.914Z,74.50
2019-06-27T21:03:05.046Z,94.20
2019-06-27T21:08:06.228Z,99.90
2019-06-27T21:13:07.353Z,99.90
2019-06-27T21:18:08.443Z,99.90
2019-06-27T21:23:09.568Z,99.90
2019-06-27T21:28:10.864Z,99.90
2019-06-27T21:33:12.063Z,99.90
2019-06-27T21:38:13.182Z,99.90
2019-06-27T21:43:15.619Z,99.90
2019-06-27T21:48:16.735Z,99.90
2019-06-27T21:53:17.940Z,99.90
2019-06-27T21:58:19.045Z,99.90
2019-06-27T22:03:20.240Z,99.90
2019-06-27T22:08:21.341Z,99.90
2019-06-27T22:13:22.446Z,99.90
2019-06-27T22:18:23.537Z,99.90
2019-06-27T22:23:24.635Z,99.90
2019-06-27T22:28:25.749Z,99.90
2019-06-27T22:33:26.845Z,99.90
2019-06-27T22:38:46.471Z,99.90
2019-06-27T22:44:06.248Z,99.90
2019-06-27T22:49:07.768Z,99.90
2019-06-27T22:54:10.771Z,99.90
2019-06-27T22:59:11.879Z,99.90
2019-06-27T23:04:12.972Z,99.90
2019-06-27T23:09:14.158Z,99.90
2019-06-27T23:14:15.259Z,99.90
2019-06-27T23:19:16.496Z,99.90
2019-06-27T23:24:17.684Z,99.90
2019-06-27T23:29:18.788Z,99.90
2019-06-27T23:34:19.925Z,99.90
2019-06-27T23:39:21.021Z,99.90
2019-06-27T23:44:25.153Z,99.90
2019-06-27T23:49:26.267Z,99.90
2019-06-27T23:54:30.172Z,99.90
2019-06-27T23:59:31.447Z,99.90
